sensor_id;sensor_type;location;lat;lon;timestamp;pressure;altitude;pressure_sealevel;temperature;humidity
6833;BME280;3454;42.654;23.378;2024-03-17T00:02:01;63804.88;;;8.26;95.28
6833;BME280;3454;42.654;23.378;2024-03-17T00:04:28;63808.72;;;8.30;94.78
6833;BME280;3454;42.654;23.378;2024-03-17T00:06:53;63807.06;;;8.28;93.91
6833;BME280;3454;42.654;23.378;2024-03-17T00:09:19;63799.09;;;8.23;94.44
6833;BME280;3454;42.654;23.378;2024-03-17T00:11:45;63801.84;;;8.26;95.98
6833;BME280;3454;42.654;23.378;2024-03-17T00:14:11;63808.41;;;8.32;95.61
6833;BME280;3454;42.654;23.378;2024-03-17T00:16:37;63795.03;;;8.17;98.69
6833;BME280;3454;42.654;23.378;2024-03-17T00:19:02;63821.28;;;8.41;95.02
6833;BME280;3454;42.654;23.378;2024-03-17T00:21:28;63828.59;;;8.51;92.88
6833;BME280;3454;42.654;23.378;2024-03-17T00:23:54;63824.44;;;8.49;96.34
6833;BME280;3454;42.654;23.378;2024-03-17T00:26:20;63819.50;;;8.44;96.93
6833;BME280;3454;42.654;23.378;2024-03-17T00:28:48;63816.56;;;8.39;99.36
6833;BME280;3454;42.654;23.378;2024-03-17T00:31:16;63779.44;;;8.05;100.00
6833;BME280;3454;42.654;23.378;2024-03-17T00:33:42;63809.25;;;8.30;100.00
6833;BME280;3454;42.654;23.378;2024-03-17T00:36:07;63784.03;;;8.12;100.00
6833;BME280;3454;42.654;23.378;2024-03-17T00:38:33;63766.66;;;7.91;100.00
6833;BME280;3454;42.654;23.378;2024-03-17T00:40:59;63768.53;;;7.95;100.00
6833;BME280;3454;42.654;23.378;2024-03-17T00:43:25;63794.16;;;8.19;100.00
6833;BME280;3454;42.654;23.378;2024-03-17T00:45:52;63764.16;;;7.91;100.00
6833;BME280;3454;42.654;23.378;2024-03-17T00:48:17;63778.88;;;8.05;100.00
6833;BME280;3454;42.654;23.378;2024-03-17T00:50:43;63787.06;;;8.12;100.00
6833;BME280;3454;42.654;23.378;2024-03-17T00:53:11;63787.38;;;8.10;100.00
6833;BME280;3454;42.654;23.378;2024-03-17T00:55:37;63764.47;;;7.89;100.00
6833;BME280;3454;42.654;23.378;2024-03-17T00:58:03;63781.63;;;8.07;100.00
6833;BME280;3454;42.654;23.378;2024-03-17T01:00:29;63780.31;;;8.04;100.00
6833;BME280;3454;42.654;23.378;2024-03-17T01:02:55;63769.28;;;7.98;100.00
6833;BME280;3454;42.654;23.378;2024-03-17T01:05:21;63773.44;;;8.00;100.00
6833;BME280;3454;42.654;23.378;2024-03-17T01:07:47;63777.25;;;8.03;100.00
6833;BME280;3454;42.654;23.378;2024-03-17T01:10:14;63766.34;;;7.93;100.00
6833;BME280;3454;42.654;23.378;2024-03-17T01:12:39;63766.66;;;7.91;100.00
6833;BME280;3454;42.654;23.378;2024-03-17T01:15:06;63772.09;;;7.96;100.00
6833;BME280;3454;42.654;23.378;2024-03-17T01:17:31;63729.97;;;7.62;100.00
6833;BME280;3454;42.654;23.378;2024-03-17T01:19:58;63717.88;;;7.44;100.00
6833;BME280;3454;42.654;23.378;2024-03-17T01:22:24;63667.91;;;7.00;100.00
6833;BME280;3454;42.654;23.378;2024-03-17T01:24:50;63637.06;;;6.74;100.00
6833;BME280;3454;42.654;23.378;2024-03-17T01:27:15;63668.13;;;7.03;100.00
6833;BME280;3454;42.654;23.378;2024-03-17T01:29:42;63646.00;;;6.85;100.00
6833;BME280;3454;42.654;23.378;2024-03-17T01:32:09;63626.72;;;6.64;100.00
6833;BME280;3454;42.654;23.378;2024-03-17T01:34:37;63639.78;;;6.76;100.00
6833;BME280;3454;42.654;23.378;2024-03-17T01:37:03;63643.81;;;6.83;100.00
6833;BME280;3454;42.654;23.378;2024-03-17T01:39:29;63655.16;;;6.86;100.00
6833;BME280;3454;42.654;23.378;2024-03-17T01:41:55;63668.66;;;7.03;100.00
6833;BME280;3454;42.654;23.378;2024-03-17T01:44:27;63660.50;;;6.96;100.00
6833;BME280;3454;42.654;23.378;2024-03-17T01:46:53;63667.03;;;7.02;100.00
6833;BME280;3454;42.654;23.378;2024-03-17T01:49:21;63630.84;;;6.66;100.00
6833;BME280;3454;42.654;23.378;2024-03-17T01:51:48;63641.41;;;6.78;100.00
6833;BME280;3454;42.654;23.378;2024-03-17T01:54:14;63626.72;;;6.64;100.00
6833;BME280;3454;42.654;23.378;2024-03-17T01:56:42;63634.31;;;6.71;100.00
6833;BME280;3454;42.654;23.378;2024-03-17T01:59:09;63613.94;;;6.50;100.00
6833;BME280;3454;42.654;23.378;2024-03-17T02:01:38;63592.13;;;6.30;100.00
6833;BME280;3454;42.654;23.378;2024-03-17T02:04:05;63578.22;;;6.20;100.00
6833;BME280;3454;42.654;23.378;2024-03-17T02:06:30;63633.25;;;6.70;100.00
6833;BME280;3454;42.654;23.378;2024-03-17T02:08:56;63647.97;;;6.84;100.00
6833;BME280;3454;42.654;23.378;2024-03-17T02:11:28;63666.50;;;7.01;100.00
6833;BME280;3454;42.654;23.378;2024-03-17T02:13:55;63687.00;;;7.18;100.00
6833;BME280;3454;42.654;23.378;2024-03-17T02:16:23;63692.13;;;7.25;100.00
6833;BME280;3454;42.654;23.378;2024-03-17T02:18:49;63690.28;;;7.21;100.00
6833;BME280;3454;42.654;23.378;2024-03-17T02:21:15;63706.63;;;7.36;100.00
6833;BME280;3454;42.654;23.378;2024-03-17T02:23:44;63716.88;;;7.50;100.00
6833;BME280;3454;42.654;23.378;2024-03-17T02:26:10;63726.25;;;7.54;100.00
6833;BME280;3454;42.654;23.378;2024-03-17T02:28:44;63733.59;;;7.63;100.00
6833;BME280;3454;42.654;23.378;2024-03-17T02:31:11;63721.81;;;7.54;100.00
6833;BME280;3454;42.654;23.378;2024-03-17T02:33:37;63721.81;;;7.54;100.00
6833;BME280;3454;42.654;23.378;2024-03-17T02:36:07;63724.31;;;7.54;100.00
6833;BME280;3454;42.654;23.378;2024-03-17T02:38:33;63730.31;;;7.60;100.00
6833;BME280;3454;42.654;23.378;2024-03-17T02:41:18;63728.69;;;7.58;100.00
6833;BME280;3454;42.654;23.378;2024-03-17T02:43:44;63730.84;;;7.60;100.00
6833;BME280;3454;42.654;23.378;2024-03-17T02:46:17;63750.28;;;7.76;100.00
6833;BME280;3454;42.654;23.378;2024-03-17T02:48:44;63748.31;;;7.77;100.00
6833;BME280;3454;42.654;23.378;2024-03-17T02:51:13;63745.34;;;7.72;100.00
6833;BME280;3454;42.654;23.378;2024-03-17T02:53:46;63724.88;;;7.55;100.00
6833;BME280;3454;42.654;23.378;2024-03-17T02:56:13;63730.63;;;7.58;100.00
6833;BME280;3454;42.654;23.378;2024-03-17T02:58:44;63738.81;;;7.65;100.00
6833;BME280;3454;42.654;23.378;2024-03-17T03:01:10;63733.25;;;7.65;100.00
6833;BME280;3454;42.654;23.378;2024-03-17T03:03:36;63723.44;;;7.56;100.00
6833;BME280;3454;42.654;23.378;2024-03-17T03:06:02;63711.78;;;7.43;100.00
6833;BME280;3454;42.654;23.378;2024-03-17T03:08:30;63710.66;;;7.42;100.00
6833;BME280;3454;42.654;23.378;2024-03-17T03:10:56;63716.47;;;7.45;100.00
6833;BME280;3454;42.654;23.378;2024-03-17T03:13:22;63711.00;;;7.40;100.00
6833;BME280;3454;42.654;23.378;2024-03-17T03:15:48;63698.13;;;7.30;100.00
6833;BME280;3454;42.654;23.378;2024-03-17T03:18:14;63707.72;;;7.37;100.00
6833;BME280;3454;42.654;23.378;2024-03-17T03:20:40;63715.91;;;7.44;100.00
6833;BME280;3454;42.654;23.378;2024-03-17T03:23:06;63719.41;;;7.50;100.00
6833;BME280;3454;42.654;23.378;2024-03-17T03:25:32;63709.25;;;7.43;100.00
6833;BME280;3454;42.654;23.378;2024-03-17T03:27:57;63713.94;;;7.45;100.00
6833;BME280;3454;42.654;23.378;2024-03-17T03:30:24;63713.72;;;7.42;100.00
6833;BME280;3454;42.654;23.378;2024-03-17T03:32:50;63716.47;;;7.45;100.00
6833;BME280;3454;42.654;23.378;2024-03-17T03:35:15;63700.84;;;7.33;100.00
6833;BME280;3454;42.654;23.378;2024-03-17T03:37:41;63713.19;;;7.42;100.00
6833;BME280;3454;42.654;23.378;2024-03-17T03:40:08;63722.13;;;7.52;100.00
6833;BME280;3454;42.654;23.378;2024-03-17T03:42:44;63710.66;;;7.42;100.00
6833;BME280;3454;42.654;23.378;2024-03-17T03:45:10;63723.75;;;7.54;100.00
6833;BME280;3454;42.654;23.378;2024-03-17T03:47:39;63726.25;;;7.54;100.00
6833;BME280;3454;42.654;23.378;2024-03-17T03:50:17;63734.66;;;7.64;100.00
6833;BME280;3454;42.654;23.378;2024-03-17T03:52:43;63722.13;;;7.52;100.00
6833;BME280;3454;42.654;23.378;2024-03-17T03:55:11;63721.56;;;7.52;100.00
6833;BME280;3454;42.654;23.378;2024-03-17T03:57:40;63699.00;;;7.29;100.00
6833;BME280;3454;42.654;23.378;2024-03-17T04:00:06;63677.94;;;7.12;100.00
6833;BME280;3454;42.654;23.378;2024-03-17T04:02:42;63669.78;;;7.04;100.00
6833;BME280;3454;42.654;23.378;2024-03-17T04:05:09;63684.81;;;7.16;100.00
6833;BME280;3454;42.654;23.378;2024-03-17T04:07:36;63693.53;;;7.24;100.00
6833;BME280;3454;42.654;23.378;2024-03-17T04:10:05;63689.41;;;7.22;100.00
6833;BME280;3454;42.654;23.378;2024-03-17T04:12:30;63689.94;;;7.23;100.00
6833;BME280;3454;42.654;23.378;2024-03-17T04:14:57;63684.72;;;7.20;100.00
6833;BME280;3454;42.654;23.378;2024-03-17T04:17:23;63687.97;;;7.23;100.00
6833;BME280;3454;42.654;23.378;2024-03-17T04:19:53;63686.66;;;7.20;100.00
6833;BME280;3454;42.654;23.378;2024-03-17T04:22:20;63694.31;;;7.27;100.00
6833;BME280;3454;42.654;23.378;2024-03-17T04:24:49;63701.72;;;7.31;100.00
6833;BME280;3454;42.654;23.378;2024-03-17T04:27:25;63701.19;;;7.31;100.00
6833;BME280;3454;42.654;23.378;2024-03-17T04:29:56;63689.94;;;7.23;100.00
6833;BME280;3454;42.654;23.378;2024-03-17T04:32:23;63697.03;;;7.29;100.00
6833;BME280;3454;42.654;23.378;2024-03-17T04:34:49;63674.69;;;7.09;100.00
6833;BME280;3454;42.654;23.378;2024-03-17T04:37:15;63681.00;;;7.12;100.00
6833;BME280;3454;42.654;23.378;2024-03-17T04:39:42;63666.72;;;7.04;100.00
6833;BME280;3454;42.654;23.378;2024-03-17T04:42:09;63653.19;;;6.87;100.00
6833;BME280;3454;42.654;23.378;2024-03-17T04:44:34;63633.03;;;6.68;100.00
6833;BME280;3454;42.654;23.378;2024-03-17T04:47:00;63631.38;;;6.66;100.00
6833;BME280;3454;42.654;23.378;2024-03-17T04:49:25;63622.66;;;6.58;100.00
6833;BME280;3454;42.654;23.378;2024-03-17T04:51:51;63607.84;;;6.49;100.00
6833;BME280;3454;42.654;23.378;2024-03-17T04:54:17;63620.16;;;6.58;100.00
6833;BME280;3454;42.654;23.378;2024-03-17T04:56:42;63614.47;;;6.51;100.00
6833;BME280;3454;42.654;23.378;2024-03-17T04:59:08;63613.06;;;6.52;100.00
6833;BME280;3454;42.654;23.378;2024-03-17T05:01:35;63617.75;;;6.54;100.00
6833;BME280;3454;42.654;23.378;2024-03-17T05:04:05;63608.72;;;6.48;100.00
6833;BME280;3454;42.654;23.378;2024-03-17T05:06:31;63607.63;;;6.47;100.00
6833;BME280;3454;42.654;23.378;2024-03-17T05:08:57;63613.94;;;6.50;100.00
6833;BME280;3454;42.654;23.378;2024-03-17T05:11:23;63604.91;;;6.44;100.00
6833;BME280;3454;42.654;23.378;2024-03-17T05:13:52;63609.59;;;6.46;100.00
6833;BME280;3454;42.654;23.378;2024-03-17T05:16:17;63620.50;;;6.56;100.00
6833;BME280;3454;42.654;23.378;2024-03-17T05:18:52;63626.47;;;6.62;100.00
6833;BME280;3454;42.654;23.378;2024-03-17T05:21:18;63631.38;;;6.66;100.00
6833;BME280;3454;42.654;23.378;2024-03-17T05:23:44;63647.50;;;6.79;100.00
6833;BME280;3454;42.654;23.378;2024-03-17T05:26:09;63641.19;;;6.75;100.00
6833;BME280;3454;42.654;23.378;2024-03-17T05:28:35;63634.66;;;6.69;100.00
6833;BME280;3454;42.654;23.378;2024-03-17T05:31:01;63611.97;;;6.51;100.00
6833;BME280;3454;42.654;23.378;2024-03-17T05:33:27;63620.69;;;6.59;100.00
6833;BME280;3454;42.654;23.378;2024-03-17T05:35:56;63622.13;;;6.58;100.00
6833;BME280;3454;42.654;23.378;2024-03-17T05:38:24;63618.31;;;6.54;100.00
6833;BME280;3454;42.654;23.378;2024-03-17T05:43:23;63647.97;;;6.84;100.00
6833;BME280;3454;42.654;23.378;2024-03-17T05:45:53;63661.03;;;6.96;100.00
6833;BME280;3454;42.654;23.378;2024-03-17T05:48:19;63668.13;;;7.03;100.00
6833;BME280;3454;42.654;23.378;2024-03-17T05:50:45;63666.50;;;7.01;100.00
6833;BME280;3454;42.654;23.378;2024-03-17T05:53:11;63664.84;;;7.00;100.00
6833;BME280;3454;42.654;23.378;2024-03-17T05:55:37;63663.22;;;6.98;100.00
6833;BME280;3454;42.654;23.378;2024-03-17T05:58:03;63666.28;;;6.99;100.00
6833;BME280;3454;42.654;23.378;2024-03-17T06:00:28;63676.88;;;7.11;100.00
6833;BME280;3454;42.654;23.378;2024-03-17T06:02:56;63683.72;;;7.15;100.00
6833;BME280;3454;42.654;23.378;2024-03-17T06:05:23;63676.88;;;7.11;100.00
6833;BME280;3454;42.654;23.378;2024-03-17T06:07:48;63674.69;;;7.09;100.00
6833;BME280;3454;42.654;23.378;2024-03-17T06:10:14;63693.22;;;7.26;100.00
6833;BME280;3454;42.654;23.378;2024-03-17T06:12:39;63692.47;;;7.23;100.00
6833;BME280;3454;42.654;23.378;2024-03-17T06:15:05;63702.81;;;7.32;100.00
6833;BME280;3454;42.654;23.378;2024-03-17T06:17:32;63728.44;;;7.56;100.00
6833;BME280;3454;42.654;23.378;2024-03-17T06:19:57;63753.56;;;7.79;100.00
6833;BME280;3454;42.654;23.378;2024-03-17T06:22:23;63768.53;;;7.95;100.00
6833;BME280;3454;42.654;23.378;2024-03-17T06:24:50;63735.00;;;7.62;100.00
6833;BME280;3454;42.654;23.378;2024-03-17T06:27:15;63734.34;;;7.66;100.00
6833;BME280;3454;42.654;23.378;2024-03-17T06:29:41;63764.47;;;7.89;100.00
6833;BME280;3454;42.654;23.378;2024-03-17T06:32:08;63788.91;;;8.16;100.00
6833;BME280;3454;42.654;23.378;2024-03-17T06:34:34;63786.53;;;8.12;100.00
6833;BME280;3454;42.654;23.378;2024-03-17T06:36:59;63796.69;;;8.19;100.00
6833;BME280;3454;42.654;23.378;2024-03-17T06:39:25;63777.56;;;8.01;100.00
6833;BME280;3454;42.654;23.378;2024-03-17T06:41:52;63773.22;;;7.97;100.00
6833;BME280;3454;42.654;23.378;2024-03-17T06:44:18;63790.91;;;8.16;100.00
6833;BME280;3454;42.654;23.378;2024-03-17T06:46:45;63813.84;;;8.37;100.00
6833;BME280;3454;42.654;23.378;2024-03-17T06:49:12;63820.06;;;8.45;100.00
6833;BME280;3454;42.654;23.378;2024-03-17T06:51:38;63832.75;;;8.52;100.00
6833;BME280;3454;42.654;23.378;2024-03-17T06:54:03;63838.75;;;8.58;100.00
6833;BME280;3454;42.654;23.378;2024-03-17T06:56:29;63863.34;;;8.80;98.49
6833;BME280;3454;42.654;23.378;2024-03-17T06:58:54;63835.13;;;8.57;100.00
6833;BME280;3454;42.654;23.378;2024-03-17T07:01:20;63847.50;;;8.66;100.00
6833;BME280;3454;42.654;23.378;2024-03-17T07:03:46;63749.19;;;7.75;100.00
6833;BME280;3454;42.654;23.378;2024-03-17T07:06:12;63851.19;;;8.74;100.00
6833;BME280;3454;42.654;23.378;2024-03-17T07:08:38;63851.75;;;8.74;100.00
6833;BME280;3454;42.654;23.378;2024-03-17T07:11:05;63834.06;;;8.56;100.00
6833;BME280;3454;42.654;23.378;2024-03-17T07:13:34;63788.16;;;8.13;100.00
6833;BME280;3454;42.654;23.378;2024-03-17T07:16:01;63757.94;;;7.83;100.00
6833;BME280;3454;42.654;23.378;2024-03-17T07:18:31;63755.19;;;7.81;100.00
6833;BME280;3454;42.654;23.378;2024-03-17T07:20:59;63753.22;;;7.81;100.00
6833;BME280;3454;42.654;23.378;2024-03-17T07:23:25;63745.34;;;7.72;100.00
6833;BME280;3454;42.654;23.378;2024-03-17T07:25:53;63799.09;;;8.23;100.00
6833;BME280;3454;42.654;23.378;2024-03-17T07:28:19;63786.75;;;8.14;100.00
6833;BME280;3454;42.654;23.378;2024-03-17T07:30:53;63836.00;;;8.55;100.00
6833;BME280;3454;42.654;23.378;2024-03-17T07:33:20;63855.34;;;8.75;100.00
6833;BME280;3454;42.654;23.378;2024-03-17T07:35:47;63881.56;;;8.99;100.00
6833;BME280;3454;42.654;23.378;2024-03-17T07:38:13;63836.56;;;8.56;100.00
6833;BME280;3454;42.654;23.378;2024-03-17T07:40:38;63808.41;;;8.32;100.00
6833;BME280;3454;42.654;23.378;2024-03-17T07:43:05;63790.91;;;8.16;100.00
6833;BME280;3454;42.654;23.378;2024-03-17T07:45:30;63850.97;;;8.71;100.00
6833;BME280;3454;42.654;23.378;2024-03-17T07:47:56;63883.75;;;9.01;100.00
6833;BME280;3454;42.654;23.378;2024-03-17T07:50:22;63902.34;;;9.18;100.00
6833;BME280;3454;42.654;23.378;2024-03-17T07:52:48;63863.34;;;8.80;100.00
6833;BME280;3454;42.654;23.378;2024-03-17T07:55:13;63884.09;;;8.99;99.32
6833;BME280;3454;42.654;23.378;2024-03-17T07:57:39;63865.72;;;8.85;100.00
6833;BME280;3454;42.654;23.378;2024-03-17T08:00:07;63910.00;;;9.25;97.55
6833;BME280;3454;42.654;23.378;2024-03-17T08:02:48;63909.13;;;9.27;99.57
6833;BME280;3454;42.654;23.378;2024-03-17T08:05:13;63851.53;;;8.72;100.00
6833;BME280;3454;42.654;23.378;2024-03-17T08:07:40;63851.19;;;8.74;100.00
6833;BME280;3454;42.654;23.378;2024-03-17T08:10:08;63912.50;;;9.25;99.17
6833;BME280;3454;42.654;23.378;2024-03-17T08:12:33;63942.25;;;9.55;99.21
6833;BME280;3454;42.654;23.378;2024-03-17T08:14:59;63980.50;;;9.90;95.90
6833;BME280;3454;42.654;23.378;2024-03-17T08:17:26;63990.91;;;10.00;91.33
6833;BME280;3454;42.654;23.378;2024-03-17T08:19:52;63965.53;;;9.74;92.27
6833;BME280;3454;42.654;23.378;2024-03-17T08:22:19;64000.22;;;10.08;89.67
6833;BME280;3454;42.654;23.378;2024-03-17T08:24:44;64015.88;;;10.21;85.69
6833;BME280;3454;42.654;23.378;2024-03-17T08:27:10;63990.69;;;9.97;86.06
6833;BME280;3454;42.654;23.378;2024-03-17T08:29:35;64019.16;;;10.24;87.03
6833;BME280;3454;42.654;23.378;2024-03-17T08:32:01;64039.41;;;10.42;82.36
6833;BME280;3454;42.654;23.378;2024-03-17T08:34:27;64032.19;;;10.40;84.25
6833;BME280;3454;42.654;23.378;2024-03-17T08:36:52;64008.97;;;10.17;84.94
6833;BME280;3454;42.654;23.378;2024-03-17T08:39:18;64013.13;;;10.18;84.25
6833;BME280;3454;42.654;23.378;2024-03-17T08:41:44;63969.34;;;9.78;85.38
6833;BME280;3454;42.654;23.378;2024-03-17T08:44:10;63951.75;;;9.66;86.45
6833;BME280;3454;42.654;23.378;2024-03-17T08:46:36;63910.88;;;9.24;88.22
6833;BME280;3454;42.654;23.378;2024-03-17T08:49:02;63978.66;;;9.86;83.56
6833;BME280;3454;42.654;23.378;2024-03-17T08:51:27;64104.97;;;11.07;100.00
6833;BME280;3454;42.654;23.378;2024-03-17T08:53:54;64209.63;;;12.03;87.04
6833;BME280;3454;42.654;23.378;2024-03-17T08:56:19;64187.72;;;11.83;80.24
6833;BME280;3454;42.654;23.378;2024-03-17T08:58:46;64168.84;;;11.63;80.15
6833;BME280;3454;42.654;23.378;2024-03-17T09:01:14;64042.91;;;10.48;85.87
6833;BME280;3454;42.654;23.378;2024-03-17T09:03:41;64044.00;;;10.49;84.40
6833;BME280;3454;42.654;23.378;2024-03-17T09:06:17;64078.50;;;10.80;85.10
6833;BME280;3454;42.654;23.378;2024-03-17T09:08:44;64139.25;;;11.36;82.55
6833;BME280;3454;42.654;23.378;2024-03-17T09:11:12;64177.31;;;11.73;75.21
6833;BME280;3454;42.654;23.378;2024-03-17T09:13:38;64208.66;;;11.98;74.66
6833;BME280;3454;42.654;23.378;2024-03-17T09:16:04;64249.75;;;12.35;72.43
6833;BME280;3454;42.654;23.378;2024-03-17T09:18:32;64191.13;;;11.82;72.39
6833;BME280;3454;42.654;23.378;2024-03-17T09:20:59;64262.59;;;12.49;71.57
6833;BME280;3454;42.654;23.378;2024-03-17T09:23:25;64300.09;;;12.86;75.03
6833;BME280;3454;42.654;23.378;2024-03-17T09:26:04;64285.63;;;12.71;72.40
6833;BME280;3454;42.654;23.378;2024-03-17T09:28:31;64308.88;;;12.94;69.66
6833;BME280;3454;42.654;23.378;2024-03-17T09:30:58;64301.53;;;12.85;67.94
6833;BME280;3454;42.654;23.378;2024-03-17T09:33:24;64272.66;;;12.61;67.83
6833;BME280;3454;42.654;23.378;2024-03-17T09:36:09;64245.25;;;12.36;68.67
6833;BME280;3454;42.654;23.378;2024-03-17T09:38:41;64234.84;;;12.26;69.04
6833;BME280;3454;42.654;23.378;2024-03-17T09:41:07;64237.59;;;12.29;68.01
6833;BME280;3454;42.654;23.378;2024-03-17T09:43:34;64241.97;;;12.33;67.29
6833;BME280;3454;42.654;23.378;2024-03-17T09:46:04;64267.72;;;12.56;66.24
6833;BME280;3454;42.654;23.378;2024-03-17T09:48:31;64292.19;;;12.77;65.14
6833;BME280;3454;42.654;23.378;2024-03-17T09:50:58;64386.81;;;13.66;63.95
6833;BME280;3454;42.654;23.378;2024-03-17T09:53:32;64423.38;;;13.97;64.09
6833;BME280;3454;42.654;23.378;2024-03-17T09:56:12;64413.16;;;13.90;61.95
6833;BME280;3454;42.654;23.378;2024-03-17T09:58:42;64439.84;;;14.12;58.16
6833;BME280;3454;42.654;23.378;2024-03-17T10:01:08;64431.06;;;14.04;55.50
6833;BME280;3454;42.654;23.378;2024-03-17T10:03:44;64441.72;;;14.16;54.74
6833;BME280;3454;42.654;23.378;2024-03-17T10:06:15;64460.41;;;14.33;50.41
6833;BME280;3454;42.654;23.378;2024-03-17T10:08:46;64418.44;;;13.92;50.42
6833;BME280;3454;42.654;23.378;2024-03-17T10:11:19;64364.84;;;13.45;52.06
6833;BME280;3454;42.654;23.378;2024-03-17T10:13:47;64404.19;;;13.79;49.37
6833;BME280;3454;42.654;23.378;2024-03-17T10:16:24;64415.03;;;13.94;50.48
6833;BME280;3454;42.654;23.378;2024-03-17T10:19:10;64470.31;;;14.42;46.67
6833;BME280;3454;42.654;23.378;2024-03-17T10:21:46;64467.56;;;14.40;45.07
6833;BME280;3454;42.654;23.378;2024-03-17T10:24:21;64488.25;;;14.56;46.59
6833;BME280;3454;42.654;23.378;2024-03-17T10:26:57;64492.28;;;14.62;45.32
6833;BME280;3454;42.654;23.378;2024-03-17T10:29:28;64474.16;;;14.46;47.50
6833;BME280;3454;42.654;23.378;2024-03-17T10:32:03;64471.75;;;14.41;46.80
6833;BME280;3454;42.654;23.378;2024-03-17T10:34:30;64451.59;;;14.25;48.87
6833;BME280;3454;42.654;23.378;2024-03-17T10:39:36;64473.59;;;14.45;47.11
6833;BME280;3454;42.654;23.378;2024-03-17T10:42:04;64468.13;;;14.40;46.68
6833;BME280;3454;42.654;23.378;2024-03-17T10:44:40;64454.69;;;14.25;47.67
6833;BME280;3454;42.654;23.378;2024-03-17T10:47:07;64416.47;;;13.93;46.57
6833;BME280;3454;42.654;23.378;2024-03-17T10:49:40;64421.75;;;13.95;47.78
6833;BME280;3454;42.654;23.378;2024-03-17T10:52:15;64413.16;;;13.90;49.22
6833;BME280;3454;42.654;23.378;2024-03-17T10:54:47;64405.47;;;13.83;48.36
6833;BME280;3454;42.654;23.378;2024-03-17T10:57:36;64342.16;;;13.22;44.96
6833;BME280;3454;42.654;23.378;2024-03-17T11:00:12;64347.84;;;13.30;42.97
6833;BME280;3454;42.654;23.378;2024-03-17T11:02:43;64322.41;;;13.04;44.19
6833;BME280;3454;42.654;23.378;2024-03-17T11:05:29;64279.81;;;12.68;45.04
6833;BME280;3454;42.654;23.378;2024-03-17T11:07:56;64281.22;;;12.66;45.38
6833;BME280;3454;42.654;23.378;2024-03-17T11:10:32;64282.88;;;12.68;44.86
6833;BME280;3454;42.654;23.378;2024-03-17T11:12:59;64273.97;;;12.64;44.48
6833;BME280;3454;42.654;23.378;2024-03-17T11:20:43;64315.25;;;12.98;45.94
6833;BME280;3454;42.654;23.378;2024-03-17T11:23:28;64314.34;;;12.99;46.57
6833;BME280;3454;42.654;23.378;2024-03-17T11:25:55;64307.78;;;12.93;47.17
6833;BME280;3454;42.654;23.378;2024-03-17T11:31:37;64331.19;;;13.12;46.66
6833;BME280;3454;42.654;23.378;2024-03-17T11:34:29;64337.44;;;13.20;47.02
6833;BME280;3454;42.654;23.378;2024-03-17T11:36:54;64303.59;;;12.92;46.74
6833;BME280;3454;42.654;23.378;2024-03-17T11:39:20;64325.34;;;13.09;47.39
6833;BME280;3454;42.654;23.378;2024-03-17T11:41:51;64367.25;;;13.50;48.09
6833;BME280;3454;42.654;23.378;2024-03-17T11:46:45;64400.53;;;13.78;49.25
6833;BME280;3454;42.654;23.378;2024-03-17T11:52:02;64354.66;;;13.38;46.61
6833;BME280;3454;42.654;23.378;2024-03-17T11:54:33;64345.09;;;13.27;46.12
6833;BME280;3454;42.654;23.378;2024-03-17T11:59:29;64337.44;;;13.20;45.53
6833;BME280;3454;42.654;23.378;2024-03-17T12:01:55;64363.22;;;13.44;45.66
6833;BME280;3454;42.654;23.378;2024-03-17T12:04:22;64386.06;;;13.63;46.11
6833;BME280;3454;42.654;23.378;2024-03-17T12:06:54;64428.19;;;14.06;45.71
6833;BME280;3454;42.654;23.378;2024-03-17T12:09:26;64430.72;;;14.06;46.44
6833;BME280;3454;42.654;23.378;2024-03-17T12:14:27;64456.03;;;14.29;43.55
6833;BME280;3454;42.654;23.378;2024-03-17T12:16:57;64430.19;;;14.05;43.58
6833;BME280;3454;42.654;23.378;2024-03-17T12:19:24;64480.19;;;14.51;43.46
6833;BME280;3454;42.654;23.378;2024-03-17T12:21:51;64451.94;;;14.23;43.77
6833;BME280;3454;42.654;23.378;2024-03-17T12:24:22;64494.50;;;14.64;43.34
6833;BME280;3454;42.654;23.378;2024-03-17T12:26:49;64446.13;;;14.20;42.87
6833;BME280;3454;42.654;23.378;2024-03-17T12:29:29;64470.66;;;14.40;42.34
6833;BME280;3454;42.654;23.378;2024-03-17T12:32:03;64482.41;;;14.53;43.08
6833;BME280;3454;42.654;23.378;2024-03-17T12:34:32;64471.63;;;14.46;43.43
6833;BME280;3454;42.654;23.378;2024-03-17T12:37:00;64476.91;;;14.48;43.71
6833;BME280;3454;42.654;23.378;2024-03-17T12:39:31;64432.41;;;14.07;44.95
6833;BME280;3454;42.654;23.378;2024-03-17T12:42:12;64481.66;;;14.50;45.32
6833;BME280;3454;42.654;23.378;2024-03-17T12:44:46;64609.94;;;15.70;45.42
6833;BME280;3454;42.654;23.378;2024-03-17T12:47:15;64590.16;;;15.52;45.86
6833;BME280;3454;42.654;23.378;2024-03-17T12:49:46;64624.25;;;15.83;45.42
6833;BME280;3454;42.654;23.378;2024-03-17T12:55:00;64457.22;;;14.25;45.96
6833;BME280;3454;42.654;23.378;2024-03-17T12:57:46;64504.94;;;14.74;45.34
6833;BME280;3454;42.654;23.378;2024-03-17T13:00:32;64539.53;;;15.05;45.01
6833;BME280;3454;42.654;23.378;2024-03-17T13:03:07;64584.31;;;15.49;45.17
6833;BME280;3454;42.654;23.378;2024-03-17T13:05:37;64458.78;;;14.32;47.84
6833;BME280;3454;42.654;23.378;2024-03-17T13:08:04;64447.00;;;14.18;48.95
6833;BME280;3454;42.654;23.378;2024-03-17T13:10:31;64419.75;;;13.96;49.79
6833;BME280;3454;42.654;23.378;2024-03-17T13:13:02;64448.84;;;14.22;51.01
6833;BME280;3454;42.654;23.378;2024-03-17T13:15:28;64435.13;;;14.10;49.31
6833;BME280;3454;42.654;23.378;2024-03-17T13:17:58;64431.28;;;14.06;50.35
6833;BME280;3454;42.654;23.378;2024-03-17T13:20:24;64418.09;;;13.94;51.33
6833;BME280;3454;42.654;23.378;2024-03-17T13:22:50;64437.31;;;14.12;52.46
6833;BME280;3454;42.654;23.378;2024-03-17T13:25:17;64326.22;;;13.08;52.39
6833;BME280;3454;42.654;23.378;2024-03-17T13:27:45;64325.34;;;13.09;52.50
6833;BME280;3454;42.654;23.378;2024-03-17T13:30:15;64398.13;;;13.74;70.42
6833;BME280;3454;42.654;23.378;2024-03-17T13:32:41;64282.88;;;12.68;53.36
6833;BME280;3454;42.654;23.378;2024-03-17T13:35:23;64221.47;;;12.12;55.77
6833;BME280;3454;42.654;23.378;2024-03-17T13:37:50;64221.47;;;12.12;56.79
6833;BME280;3454;42.654;23.378;2024-03-17T13:40:18;64239.78;;;12.31;57.28
6833;BME280;3454;42.654;23.378;2024-03-17T13:42:48;64230.59;;;12.18;57.75
6833;BME280;3454;42.654;23.378;2024-03-17T13:45:15;64214.56;;;12.08;58.27